TimeAKDT,TemperatureF,Dew PointF,Humidity,Sea Level PressureIn,VisibilityMPH,Wind Direction,Wind SpeedMPH,Gust SpeedMPH,PrecipitationIn,Events,Conditions,WindDirDegrees,DateUTC
12:53 AM,42.1,35.1,76,30.05,10.0,Calm,Calm,-,0.00,Rain,Light Rain,0,2013-10-22 08:53:00
1:53 AM,41.0,35.1,79,30.06,10.0,Calm,Calm,-,0.00,,Mostly Cloudy,0,2013-10-22 09:53:00
2:53 AM,39.0,35.1,86,30.07,10.0,Calm,Calm,-,N/A,,Mostly Cloudy,0,2013-10-22 10:53:00
3:53 AM,37.0,34.0,89,30.09,10.0,Calm,Calm,-,N/A,,Overcast,0,2013-10-22 11:53:00
4:53 AM,37.9,34.0,86,30.12,10.0,Calm,Calm,-,N/A,,Overcast,0,2013-10-22 12:53:00
5:53 AM,37.9,34.0,86,30.12,10.0,Calm,Calm,-,0.00,,Overcast,0,2013-10-22 13:53:00
6:53 AM,37.9,33.1,83,30.13,10.0,East,5.8,-,N/A,,Overcast,80,2013-10-22 14:53:00
7:53 AM,39.0,33.1,79,30.15,10.0,Calm,Calm,-,N/A,,Overcast,0,2013-10-22 15:53:00
8:53 AM,39.9,33.1,77,30.17,10.0,West,3.5,-,N/A,,Overcast,280,2013-10-22 16:53:00
9:53 AM,42.1,35.1,76,30.18,10.0,Calm,Calm,-,N/A,,Overcast,0,2013-10-22 17:53:00
10:53 AM,41.0,36.0,82,30.19,10.0,Calm,Calm,-,N/A,,Overcast,0,2013-10-22 18:53:00
11:53 AM,42.1,36.0,79,30.20,10.0,Calm,Calm,-,N/A,,Mostly Cloudy,0,2013-10-22 19:53:00
12:53 PM,45.0,35.1,68,30.19,10.0,Calm,Calm,-,N/A,,Mostly Cloudy,0,2013-10-22 20:53:00
1:53 PM,46.9,33.1,59,30.19,10.0,NE,5.8,-,N/A,,Mostly Cloudy,50,2013-10-22 21:53:00
2:53 PM,46.9,33.1,59,30.18,10.0,North,5.8,-,N/A,,Mostly Cloudy,10,2013-10-22 22:53:00
3:53 PM,46.9,33.1,59,30.18,10.0,Variable,3.5,-,N/A,,Mostly Cloudy,0,2013-10-22 23:53:00
4:53 PM,46.9,33.1,59,30.17,10.0,NNE,4.6,-,N/A,,Mostly Cloudy,20,2013-10-23 00:53:00
5:53 PM,46.0,32.0,58,30.16,10.0,NNE,3.5,-,N/A,,Scattered Clouds,20,2013-10-23 01:53:00
6:53 PM,44.1,33.1,65,30.14,10.0,Calm,Calm,-,N/A,,Partly Cloudy,0,2013-10-23 02:53:00
7:53 PM,41.0,32.0,70,30.13,10.0,Calm,Calm,-,N/A,,Clear,0,2013-10-23 03:53:00
8:53 PM,37.9,30.0,73,30.12,10.0,Calm,Calm,-,N/A,,Clear,0,2013-10-23 04:53:00
9:53 PM,36.0,28.9,76,30.11,10.0,Calm,Calm,-,N/A,,Partly Cloudy,0,2013-10-23 05:53:00
10:13 PM,37.4,28.4,70,30.09,10.0,Calm,Calm,-,N/A,,Scattered Clouds,0,2013-10-23 06:13:00
10:40 PM,35.6,28.4,75,30.09,10.0,North,4.6,-,N/A,,Mostly Cloudy,10,2013-10-23 06:40:00
10:53 PM,37.0,34.0,89,30.09,2.0,North,5.8,-,N/A,,Mostly Cloudy,350,2013-10-23 06:53:00
11:14 PM,37.4,35.6,93,30.07,1.0,North,6.9,-,N/A,,Overcast,10,2013-10-23 07:14:00
11:22 PM,37.4,35.6,93,30.07,0.5,North,6.9,-,N/A,Fog,Fog,350,2013-10-23 07:22:00
11:53 PM,37.0,35.1,93,30.07,0.5,North,6.9,-,N/A,Fog,Fog,360,2013-10-23 07:53:00